createdAt,value
2018-07-31T00:02:47.297Z,100589.20
2018-07-31T00:07:51.284Z,100584.23
2018-07-31T00:12:54.817Z,100592.73
2018-07-31T00:17:58.753Z,100598.88
2018-07-31T00:23:02.311Z,100591.89
2018-07-31T00:28:05.810Z,100589.89
2018-07-31T00:33:09.491Z,100595.21
2018-07-31T00:38:13.102Z,100598.11
2018-07-31T00:43:16.861Z,100600.25
2018-07-31T00:48:20.357Z,100596.55
2018-07-31T00:53:23.933Z,100596.72
2018-07-31T00:58:27.483Z,100587.15
2018-07-31T01:03:31.012Z,100588.96
2018-07-31T01:08:34.592Z,100585.65
2018-07-31T01:13:38.699Z,100586.49
2018-07-31T01:18:42.185Z,100582.78
2018-07-31T01:23:45.741Z,100589.91
2018-07-31T01:28:49.213Z,100599.79
2018-07-31T01:33:53.105Z,100596.08
2018-07-31T01:38:56.673Z,100591.03
2018-07-31T01:44:00.245Z,100586.95
2018-07-31T01:49:03.821Z,100576.30
2018-07-31T01:54:07.414Z,100577.64
2018-07-31T01:59:10.937Z,100572.86
2018-07-31T02:04:14.498Z,100570.52
2018-07-31T02:09:18.251Z,100571.42
2018-07-31T02:14:21.881Z,100570.45
2018-07-31T02:19:25.424Z,100571.73
2018-07-31T02:24:29.029Z,100576.56
2018-07-31T02:29:37.982Z,100572.33
2018-07-31T02:34:41.529Z,100573.63
2018-07-31T02:39:45.130Z,100584.07
2018-07-31T02:44:56.909Z,100579.75
2018-07-31T02:50:00.534Z,100567.37
2018-07-31T02:55:04.177Z,100566.45
2018-07-31T03:00:08.907Z,100570.34
2018-07-31T03:05:12.950Z,100569.17
2018-07-31T03:10:16.532Z,100573.28
2018-07-31T03:15:20.168Z,100565.77
2018-07-31T03:20:23.682Z,100562.73
2018-07-31T03:25:27.412Z,100556.98
2018-07-31T03:30:31.454Z,100568.09
2018-07-31T03:35:35.137Z,100570.71
2018-07-31T03:40:38.657Z,100575.89
2018-07-31T03:45:42.576Z,100581.05
2018-07-31T03:50:46.199Z,100586.22
2018-07-31T03:55:49.785Z,100584.02
2018-07-31T04:00:53.237Z,100593.20
2018-07-31T04:05:56.808Z,100602.89
2018-07-31T04:11:00.275Z,100617.38
2018-07-31T04:16:03.870Z,100622.41
2018-07-31T04:21:07.602Z,100619.63
2018-07-31T04:26:11.640Z,100620.06
2018-07-31T04:31:15.154Z,100616.94
2018-07-31T04:36:19.036Z,100623.70
2018-07-31T04:41:22.708Z,100619.72
2018-07-31T04:46:26.301Z,100618.45
2018-07-31T04:51:29.848Z,100628.24
2018-07-31T04:56:33.535Z,100622.24
2018-07-31T05:01:37.144Z,100622.56
2018-07-31T05:06:40.691Z,100625.78
2018-07-31T05:11:44.222Z,100628.39
2018-07-31T05:16:47.929Z,100633.08
2018-07-31T05:21:51.478Z,100641.90
2018-07-31T05:26:55.096Z,100642.14
2018-07-31T05:31:58.774Z,100654.32
2018-07-31T05:37:02.367Z,100661.58
2018-07-31T05:42:05.913Z,100671.64
2018-07-31T05:47:09.501Z,100675.04
2018-07-31T05:52:13.148Z,100680.30
2018-07-31T05:57:16.859Z,100676.75
2018-07-31T06:02:20.318Z,100669.22
2018-07-31T06:07:23.890Z,100674.25
2018-07-31T06:12:28.682Z,100676.79
2018-07-31T06:17:32.349Z,100678.29
2018-07-31T06:22:37.655Z,100695.64
2018-07-31T06:27:41.744Z,100694.48
2018-07-31T06:32:45.477Z,100687.52
2018-07-31T06:37:49.133Z,100678.16
2018-07-31T06:42:54.276Z,100684.72
2018-07-31T06:48:00.254Z,100692.23
2018-07-31T06:53:03.905Z,100708.16
2018-07-31T06:58:07.982Z,100714.33
2018-07-31T07:03:11.469Z,100717.03
2018-07-31T07:08:15.287Z,100712.22
2018-07-31T07:13:19.204Z,100714.38
2018-07-31T07:18:22.837Z,100712.38
2018-07-31T07:23:26.487Z,100716.78
2018-07-31T07:28:30.155Z,100720.12
2018-07-31T07:33:34.322Z,100727.25
2018-07-31T07:38:38.034Z,100724.31
2018-07-31T07:43:43.403Z,100723.63
2018-07-31T07:48:46.986Z,100725.48
2018-07-31T07:53:51.335Z,100714.25
2018-07-31T07:58:55.035Z,100723.88
2018-07-31T08:03:58.630Z,100729.61
2018-07-31T08:09:04.739Z,100721.98
2018-07-31T08:14:08.394Z,100717.70
2018-07-31T08:19:12.405Z,100724.19
2018-07-31T08:24:16.627Z,100727.34
2018-07-31T08:29:20.261Z,100715.52
2018-07-31T08:34:23.959Z,100708.97
2018-07-31T08:39:27.773Z,100713.05
2018-07-31T08:44:31.353Z,100720.61
2018-07-31T08:49:35.197Z,100719.98
2018-07-31T08:54:38.847Z,100724.63
2018-07-31T08:59:42.691Z,100729.08
2018-07-31T09:04:46.286Z,100734.41
2018-07-31T09:09:50.431Z,100735.88
2018-07-31T09:14:54.118Z,100730.64
2018-07-31T09:19:57.767Z,100731.45
2018-07-31T09:25:02.088Z,100717.33
2018-07-31T09:30:09.715Z,100722.78
2018-07-31T09:35:13.322Z,100714.41
2018-07-31T09:40:17.009Z,100695.83
2018-07-31T09:45:20.892Z,100697.26
2018-07-31T09:50:24.473Z,100706.08
2018-07-31T09:55:28.072Z,100704.20
2018-07-31T10:00:37.026Z,100716.17
2018-07-31T10:05:40.615Z,100717.02
2018-07-31T10:10:44.258Z,100712.87
2018-07-31T10:15:47.819Z,100720.12
2018-07-31T10:20:51.600Z,100717.78
2018-07-31T10:25:55.234Z,100724.49
2018-07-31T10:30:58.951Z,100719.75
2018-07-31T10:36:03.082Z,100722.93
2018-07-31T10:41:06.805Z,100719.91
2018-07-31T10:46:10.436Z,100720.38
2018-07-31T10:51:14.121Z,100718.13
2018-07-31T10:56:17.691Z,100717.11
2018-07-31T11:01:21.398Z,100710.54
2018-07-31T11:06:25.123Z,100722.23
2018-07-31T11:11:28.737Z,100705.48
2018-07-31T11:16:32.438Z,100720.88
2018-07-31T11:21:36.003Z,100709.34
2018-07-31T11:26:39.796Z,100711.56
2018-07-31T11:31:43.366Z,100698.42
2018-07-31T11:36:47.478Z,100717.66
2018-07-31T11:41:51.061Z,100710.34
2018-07-31T11:46:54.613Z,100715.72
2018-07-31T11:51:58.368Z,100712.24
2018-07-31T11:57:01.929Z,100723.86
2018-07-31T12:02:05.596Z,100730.31
2018-07-31T12:07:18.647Z,100720.91
2018-07-31T12:12:22.275Z,100718.84
2018-07-31T12:17:26.793Z,100727.10
2018-07-31T12:22:31.028Z,100720.38
2018-07-31T12:27:35.397Z,100721.97
2018-07-31T12:32:39.807Z,100729.49
2018-07-31T12:37:43.454Z,100728.50
2018-07-31T12:42:48.369Z,100741.67
2018-07-31T12:47:54.528Z,100738.63
2018-07-31T12:53:00.343Z,100732.00
2018-07-31T12:58:06.092Z,100736.49
2018-07-31T13:03:11.927Z,100731.97
2018-07-31T13:08:16.601Z,100735.17
2018-07-31T13:13:22.271Z,100738.89
2018-07-31T13:18:27.198Z,100735.00
2018-07-31T13:23:32.293Z,100734.88
2018-07-31T13:28:36.853Z,100721.80
2018-07-31T13:33:41.570Z,100733.69
2018-07-31T13:38:46.477Z,100730.27
2018-07-31T13:43:51.257Z,100728.25
2018-07-31T13:48:55.206Z,100719.75
2018-07-31T13:53:59.066Z,100727.87
2018-07-31T13:59:02.670Z,100719.70
2018-07-31T14:04:06.534Z,100723.28
2018-07-31T14:09:10.986Z,100730.89
2018-07-31T14:14:15.635Z,100728.92
2018-07-31T14:19:20.516Z,100732.68
2018-07-31T14:24:25.184Z,100716.65
2018-07-31T14:29:30.402Z,100724.17
2018-07-31T14:34:35.023Z,100728.94
2018-07-31T14:39:38.657Z,100739.59
2018-07-31T14:44:42.234Z,100733.27
2018-07-31T14:49:45.746Z,100728.24
2018-07-31T14:54:49.423Z,100728.08
2018-07-31T14:59:53.256Z,100728.71
2018-07-31T15:04:56.853Z,100732.69
2018-07-31T15:10:00.357Z,100736.13
2018-07-31T15:15:03.991Z,100736.49
2018-07-31T15:20:07.624Z,100733.69
2018-07-31T15:25:11.209Z,100744.80
2018-07-31T15:30:16.288Z,100749.18
2018-07-31T15:35:19.992Z,100756.73
2018-07-31T15:40:23.471Z,100759.91
2018-07-31T15:45:34.645Z,100765.38
2018-07-31T15:50:38.245Z,100761.87
2018-07-31T15:55:41.751Z,100767.71
2018-07-31T16:00:46.284Z,100760.36
2018-07-31T16:05:49.843Z,100758.45
2018-07-31T16:10:54.346Z,100757.34
2018-07-31T16:15:57.919Z,100760.99
2018-07-31T16:21:01.701Z,100764.31
2018-07-31T16:26:05.260Z,100763.46
2018-07-31T16:31:08.551Z,100770.44
2018-07-31T16:36:12.110Z,100783.39
2018-07-31T16:41:16.463Z,100780.22
2018-07-31T16:46:19.991Z,100781.55
2018-07-31T16:51:23.786Z,100787.50
2018-07-31T16:56:28.275Z,100790.76
2018-07-31T17:01:31.896Z,100784.76
2018-07-31T17:06:35.444Z,100790.31
2018-07-31T17:11:39.036Z,100796.45
2018-07-31T17:16:42.627Z,100794.73
2018-07-31T17:21:46.244Z,100795.78
2018-07-31T17:26:49.919Z,100809.28
2018-07-31T17:31:53.492Z,100816.83
2018-07-31T17:36:57.199Z,100819.61
2018-07-31T17:42:00.772Z,100830.09
2018-07-31T17:47:04.416Z,100829.57
2018-07-31T17:52:08.029Z,100831.38
2018-07-31T17:57:11.554Z,100837.11
2018-07-31T18:02:15.139Z,100848.25
2018-07-31T18:07:19.040Z,100864.09
2018-07-31T18:12:23.454Z,100870.72
2018-07-31T18:17:27.045Z,100876.55
2018-07-31T18:22:30.993Z,100877.48
2018-07-31T18:27:35.806Z,100884.90
2018-07-31T18:32:39.937Z,100892.11
2018-07-31T18:37:43.641Z,100912.18
2018-07-31T18:42:47.225Z,100905.39
2018-07-31T18:47:50.889Z,100918.73
2018-07-31T18:52:55.093Z,100924.16
2018-07-31T18:57:58.916Z,100928.52
2018-07-31T19:03:02.560Z,100934.14
2018-07-31T19:08:06.205Z,100950.45
2018-07-31T19:13:10.886Z,100954.30
2018-07-31T19:18:15.246Z,100972.16
2018-07-31T19:25:43.926Z,100989.52
2018-07-31T19:30:47.439Z,101000.81
2018-07-31T19:35:51.909Z,100996.41
2018-07-31T19:40:55.478Z,101000.23
2018-07-31T19:45:59.028Z,101007.25
2018-07-31T19:51:03.451Z,101003.16
2018-07-31T19:56:07.238Z,101016.52
2018-07-31T20:01:11.691Z,101022.38
2018-07-31T20:06:15.369Z,101030.57
2018-07-31T20:11:18.881Z,101041.69
2018-07-31T20:16:22.649Z,101043.22
2018-07-31T20:21:26.145Z,101051.29
2018-07-31T20:26:29.893Z,101050.55
2018-07-31T20:31:33.508Z,101048.19
2018-07-31T20:36:37.320Z,101051.44
2018-07-31T20:41:41.623Z,101056.30
2018-07-31T20:46:45.151Z,101060.34
2018-07-31T20:51:48.727Z,101076.70
2018-07-31T20:56:52.388Z,101080.48
2018-07-31T21:01:55.959Z,101083.73
2018-07-31T21:06:59.573Z,101088.45
2018-07-31T21:12:03.256Z,101088.48
2018-07-31T21:17:06.878Z,101087.52
2018-07-31T21:22:10.425Z,101094.00
2018-07-31T21:27:14.738Z,101095.38
2018-07-31T21:32:20.500Z,101107.63
2018-07-31T21:37:24.292Z,101110.08
2018-07-31T21:42:28.365Z,101118.47
2018-07-31T21:47:32.057Z,101123.12
2018-07-31T21:52:36.082Z,101132.36
2018-07-31T21:57:41.140Z,101138.86
2018-07-31T22:02:44.660Z,101144.74
2018-07-31T22:07:48.975Z,101147.09
2018-07-31T22:12:52.656Z,101154.33
2018-07-31T22:17:56.241Z,101155.13
2018-07-31T22:23:00.387Z,101140.64
2018-07-31T22:28:04.009Z,101138.73
2018-07-31T22:33:08.451Z,101152.39
2018-07-31T22:38:12.792Z,101154.04
2018-07-31T22:43:16.697Z,101155.23
2018-07-31T22:48:20.619Z,101158.06
2018-07-31T22:53:24.833Z,101159.36
2018-07-31T22:58:29.003Z,101160.45
2018-07-31T23:03:32.549Z,101171.12
2018-07-31T23:08:36.124Z,101185.14
2018-07-31T23:13:39.877Z,101189.13
2018-07-31T23:18:43.548Z,101175.16
2018-07-31T23:23:47.705Z,101184.52
2018-07-31T23:28:51.699Z,101189.98
2018-07-31T23:33:56.149Z,101188.52
2018-07-31T23:39:00.633Z,101198.45
2018-07-31T23:44:04.379Z,101189.28
2018-07-31T23:49:08.006Z,101177.84
2018-07-31T23:54:11.724Z,101172.34
2018-07-31T23:59:16.127Z,101177.75
